sensor_id;sensor_type;location;lat;lon;timestamp;pressure;altitude;pressure_sealevel;temperature;humidity
14232;BME280;7200;52.194;9.900;2023-09-19T00:01:31;99392.38;;;17.67;100.00
14232;BME280;7200;52.194;9.900;2023-09-19T00:03:57;99392.25;;;17.68;100.00
14232;BME280;7200;52.194;9.900;2023-09-19T00:06:23;99382.19;;;17.61;100.00
14232;BME280;7200;52.194;9.900;2023-09-19T00:08:51;99381.56;;;17.36;100.00
14232;BME280;7200;52.194;9.900;2023-09-19T00:11:17;99385.78;;;17.50;100.00
14232;BME280;7200;52.194;9.900;2023-09-19T00:13:42;99389.63;;;17.46;100.00
14232;BME280;7200;52.194;9.900;2023-09-19T00:16:09;99395.75;;;17.37;100.00
14232;BME280;7200;52.194;9.900;2023-09-19T00:18:37;99397.91;;;17.43;100.00
14232;BME280;7200;52.194;9.900;2023-09-19T00:21:03;99406.13;;;17.51;100.00
14232;BME280;7200;52.194;9.900;2023-09-19T00:23:30;99419.38;;;17.30;100.00
14232;BME280;7200;52.194;9.900;2023-09-19T00:25:59;99416.22;;;17.36;100.00
14232;BME280;7200;52.194;9.900;2023-09-19T00:28:24;99427.72;;;17.48;100.00
14232;BME280;7200;52.194;9.900;2023-09-19T00:30:50;99420.72;;;17.36;100.00
14232;BME280;7200;52.194;9.900;2023-09-19T00:33:15;99425.91;;;17.37;100.00
14232;BME280;7200;52.194;9.900;2023-09-19T00:35:47;99415.00;;;17.40;100.00
14232;BME280;7200;52.194;9.900;2023-09-19T00:38:12;99412.06;;;17.55;100.00
14232;BME280;7200;52.194;9.900;2023-09-19T00:40:46;99426.78;;;17.70;100.00
14232;BME280;7200;52.194;9.900;2023-09-19T00:43:12;99418.19;;;17.66;100.00
14232;BME280;7200;52.194;9.900;2023-09-19T00:45:38;99411.22;;;17.54;100.00
14232;BME280;7200;52.194;9.900;2023-09-19T00:48:04;99419.50;;;17.72;100.00
14232;BME280;7200;52.194;9.900;2023-09-19T00:50:34;99425.78;;;17.82;100.00
14232;BME280;7200;52.194;9.900;2023-09-19T00:53:00;99411.34;;;17.52;100.00
14232;BME280;7200;52.194;9.900;2023-09-19T00:55:26;99410.44;;;17.75;100.00
14232;BME280;7200;52.194;9.900;2023-09-19T00:57:55;99416.63;;;17.64;100.00
14232;BME280;7200;52.194;9.900;2023-09-19T01:00:21;99413.53;;;17.47;100.00
14232;BME280;7200;52.194;9.900;2023-09-19T01:02:47;99423.22;;;17.48;100.00
14232;BME280;7200;52.194;9.900;2023-09-19T01:05:13;99422.16;;;17.40;100.00
14232;BME280;7200;52.194;9.900;2023-09-19T01:07:38;99416.72;;;17.30;100.00
14232;BME280;7200;52.194;9.900;2023-09-19T01:10:12;99424.94;;;17.38;100.00
14232;BME280;7200;52.194;9.900;2023-09-19T01:13:18;99427.88;;;17.35;100.00
14232;BME280;7200;52.194;9.900;2023-09-19T01:16:19;99441.81;;;17.39;100.00
14232;BME280;7200;52.194;9.900;2023-09-19T01:21:20;99435.22;;;17.54;100.00
14232;BME280;7200;52.194;9.900;2023-09-19T01:23:59;99439.94;;;17.50;100.00
14232;BME280;7200;52.194;9.900;2023-09-19T01:29:44;99447.59;;;17.44;100.00
14232;BME280;7200;52.194;9.900;2023-09-19T01:32:13;99440.22;;;17.36;100.00
14232;BME280;7200;52.194;9.900;2023-09-19T01:34:47;99439.25;;;17.37;100.00
14232;BME280;7200;52.194;9.900;2023-09-19T01:37:14;99443.13;;;17.33;100.00
14232;BME280;7200;52.194;9.900;2023-09-19T01:39:44;99454.53;;;17.35;100.00
14232;BME280;7200;52.194;9.900;2023-09-19T01:47:33;99461.63;;;17.46;100.00
14232;BME280;7200;52.194;9.900;2023-09-19T01:52:40;99470.13;;;17.51;100.00
14232;BME280;7200;52.194;9.900;2023-09-19T01:55:09;99468.66;;;17.58;100.00
14232;BME280;7200;52.194;9.900;2023-09-19T01:57:42;99468.16;;;17.64;100.00
14232;BME280;7200;52.194;9.900;2023-09-19T02:00:12;99467.28;;;17.75;100.00
14232;BME280;7200;52.194;9.900;2023-09-19T02:02:42;99468.06;;;17.55;100.00
14232;BME280;7200;52.194;9.900;2023-09-19T02:05:09;99472.88;;;17.61;100.00
14232;BME280;7200;52.194;9.900;2023-09-19T02:07:35;99471.44;;;17.68;100.00
14232;BME280;7200;52.194;9.900;2023-09-19T02:10:04;99473.88;;;17.60;100.00
14232;BME280;7200;52.194;9.900;2023-09-19T02:12:31;99476.88;;;17.66;100.00
14232;BME280;7200;52.194;9.900;2023-09-19T02:14:57;99481.63;;;18.18;100.00
14232;BME280;7200;52.194;9.900;2023-09-19T02:17:24;99487.75;;;18.29;100.00
14232;BME280;7200;52.194;9.900;2023-09-19T02:19:52;99475.66;;;17.70;100.00
14232;BME280;7200;52.194;9.900;2023-09-19T02:22:17;99484.13;;;17.76;100.00
14232;BME280;7200;52.194;9.900;2023-09-19T02:24:43;99485.25;;;17.73;100.00
14232;BME280;7200;52.194;9.900;2023-09-19T02:27:08;99484.25;;;17.74;100.00
14232;BME280;7200;52.194;9.900;2023-09-19T02:29:33;99493.88;;;17.65;100.00
14232;BME280;7200;52.194;9.900;2023-09-19T02:32:02;99488.13;;;17.81;100.00
14232;BME280;7200;52.194;9.900;2023-09-19T02:34:27;99490.22;;;17.66;100.00
14232;BME280;7200;52.194;9.900;2023-09-19T02:36:53;99499.63;;;17.82;100.00
14232;BME280;7200;52.194;9.900;2023-09-19T02:39:20;99505.16;;;18.13;100.00
14232;BME280;7200;52.194;9.900;2023-09-19T02:41:45;99495.53;;;17.78;100.00
14232;BME280;7200;52.194;9.900;2023-09-19T02:44:11;99489.25;;;17.67;100.00
14232;BME280;7200;52.194;9.900;2023-09-19T02:46:37;99492.03;;;17.66;100.00
14232;BME280;7200;52.194;9.900;2023-09-19T02:49:03;99501.28;;;17.62;100.00
14232;BME280;7200;52.194;9.900;2023-09-19T02:51:32;99495.94;;;17.50;100.00
14232;BME280;7200;52.194;9.900;2023-09-19T02:53:59;99480.94;;;17.38;100.00
14232;BME280;7200;52.194;9.900;2023-09-19T02:56:24;99486.88;;;17.42;100.00
14232;BME280;7200;52.194;9.900;2023-09-19T02:58:50;99498.91;;;17.80;100.00
14232;BME280;7200;52.194;9.900;2023-09-19T03:01:16;99487.22;;;17.48;100.00
14232;BME280;7200;52.194;9.900;2023-09-19T03:03:43;99491.94;;;17.56;100.00
14232;BME280;7200;52.194;9.900;2023-09-19T03:06:10;99480.41;;;17.67;100.00
14232;BME280;7200;52.194;9.900;2023-09-19T03:08:36;99486.00;;;17.64;100.00
14232;BME280;7200;52.194;9.900;2023-09-19T03:11:04;99486.09;;;17.62;100.00
14232;BME280;7200;52.194;9.900;2023-09-19T03:13:38;99492.66;;;17.58;100.00
14232;BME280;7200;52.194;9.900;2023-09-19T03:16:04;99496.16;;;17.70;100.00
14232;BME280;7200;52.194;9.900;2023-09-19T03:18:31;99495.22;;;17.60;100.00
14232;BME280;7200;52.194;9.900;2023-09-19T03:20:57;99500.28;;;17.63;100.00
14232;BME280;7200;52.194;9.900;2023-09-19T03:23:25;99504.91;;;17.61;100.00
14232;BME280;7200;52.194;9.900;2023-09-19T03:25:51;99509.88;;;17.54;100.00
14232;BME280;7200;52.194;9.900;2023-09-19T03:28:17;99510.84;;;17.64;100.00
14232;BME280;7200;52.194;9.900;2023-09-19T03:30:43;99520.56;;;17.54;100.00
14232;BME280;7200;52.194;9.900;2023-09-19T03:33:09;99520.16;;;17.70;100.00
14232;BME280;7200;52.194;9.900;2023-09-19T03:35:37;99515.66;;;17.70;100.00
14232;BME280;7200;52.194;9.900;2023-09-19T03:38:03;99527.69;;;17.54;100.00
14232;BME280;7200;52.194;9.900;2023-09-19T03:40:29;99521.88;;;17.71;100.00
14232;BME280;7200;52.194;9.900;2023-09-19T03:42:54;99526.97;;;17.63;100.00
14232;BME280;7200;52.194;9.900;2023-09-19T03:45:20;99530.84;;;17.59;100.00
14232;BME280;7200;52.194;9.900;2023-09-19T03:47:45;99526.00;;;17.52;100.00
14232;BME280;7200;52.194;9.900;2023-09-19T03:50:13;99529.53;;;17.42;100.00
14232;BME280;7200;52.194;9.900;2023-09-19T03:52:45;99532.19;;;17.30;100.00
14232;BME280;7200;52.194;9.900;2023-09-19T03:55:11;99541.78;;;17.33;100.00
14232;BME280;7200;52.194;9.900;2023-09-19T03:57:37;99548.31;;;17.40;100.00
14232;BME280;7200;52.194;9.900;2023-09-19T04:00:03;99546.13;;;17.57;100.00
14232;BME280;7200;52.194;9.900;2023-09-19T04:02:30;99556.78;;;17.34;100.00
14232;BME280;7200;52.194;9.900;2023-09-19T04:04:58;99559.22;;;17.60;100.00
14232;BME280;7200;52.194;9.900;2023-09-19T04:07:24;99564.44;;;17.61;100.00
14232;BME280;7200;52.194;9.900;2023-09-19T04:09:51;99564.78;;;17.68;100.00
14232;BME280;7200;52.194;9.900;2023-09-19T04:12:18;99564.06;;;17.55;100.00
14232;BME280;7200;52.194;9.900;2023-09-19T04:14:43;99581.75;;;17.22;100.00
14232;BME280;7200;52.194;9.900;2023-09-19T04:17:09;99579.41;;;16.95;100.00
14232;BME280;7200;52.194;9.900;2023-09-19T04:19:35;99586.44;;;16.96;100.00
14232;BME280;7200;52.194;9.900;2023-09-19T04:22:00;99578.66;;;16.92;100.00
14232;BME280;7200;52.194;9.900;2023-09-19T04:24:26;99575.16;;;16.92;100.00
14232;BME280;7200;52.194;9.900;2023-09-19T04:26:51;99574.25;;;17.38;100.00
14232;BME280;7200;52.194;9.900;2023-09-19T04:29:17;99580.28;;;17.29;100.00
14232;BME280;7200;52.194;9.900;2023-09-19T04:31:44;99580.06;;;17.32;100.00
14232;BME280;7200;52.194;9.900;2023-09-19T04:34:10;99581.16;;;17.29;100.00
14232;BME280;7200;52.194;9.900;2023-09-19T04:36:39;99578.38;;;17.31;100.00
14232;BME280;7200;52.194;9.900;2023-09-19T04:39:05;99585.03;;;17.14;100.00
14232;BME280;7200;52.194;9.900;2023-09-19T04:41:30;99585.13;;;17.12;100.00
14232;BME280;7200;52.194;9.900;2023-09-19T04:43:56;99582.72;;;17.21;100.00
14232;BME280;7200;52.194;9.900;2023-09-19T04:46:21;99587.81;;;17.24;100.00
14232;BME280;7200;52.194;9.900;2023-09-19T04:48:46;99588.88;;;17.10;100.00
14232;BME280;7200;52.194;9.900;2023-09-19T04:51:11;99589.38;;;17.15;100.00
14232;BME280;7200;52.194;9.900;2023-09-19T04:53:37;99597.50;;;17.25;100.00
14232;BME280;7200;52.194;9.900;2023-09-19T04:56:03;99606.00;;;17.30;100.00
14232;BME280;7200;52.194;9.900;2023-09-19T04:58:29;99600.25;;;17.12;100.00
14232;BME280;7200;52.194;9.900;2023-09-19T05:00:54;99605.53;;;16.54;100.00
14232;BME280;7200;52.194;9.900;2023-09-19T05:03:20;99611.00;;;16.64;100.00
14232;BME280;7200;52.194;9.900;2023-09-19T05:05:46;99618.13;;;16.87;100.00
14232;BME280;7200;52.194;9.900;2023-09-19T05:08:11;99623.50;;;16.99;100.00
14232;BME280;7200;52.194;9.900;2023-09-19T05:10:39;99629.47;;;17.13;100.00
14232;BME280;7200;52.194;9.900;2023-09-19T05:13:05;99622.38;;;16.90;100.00
14232;BME280;7200;52.194;9.900;2023-09-19T05:15:30;99629.75;;;16.86;100.00
14232;BME280;7200;52.194;9.900;2023-09-19T05:17:56;99626.84;;;16.89;100.00
14232;BME280;7200;52.194;9.900;2023-09-19T05:20:22;99634.97;;;16.88;100.00
14232;BME280;7200;52.194;9.900;2023-09-19T05:22:58;99636.59;;;17.02;100.00
14232;BME280;7200;52.194;9.900;2023-09-19T05:25:26;99639.97;;;17.04;100.00
14232;BME280;7200;52.194;9.900;2023-09-19T05:27:56;99650.47;;;17.18;100.00
14232;BME280;7200;52.194;9.900;2023-09-19T05:30:23;99662.97;;;17.40;100.00
14232;BME280;7200;52.194;9.900;2023-09-19T05:32:48;99661.75;;;17.33;100.00
14232;BME280;7200;52.194;9.900;2023-09-19T05:35:13;99667.63;;;17.03;100.00
14232;BME280;7200;52.194;9.900;2023-09-19T05:37:39;99672.97;;;17.14;100.00
14232;BME280;7200;52.194;9.900;2023-09-19T05:40:04;99675.44;;;16.93;100.00
14232;BME280;7200;52.194;9.900;2023-09-19T05:42:37;99670.56;;;16.87;100.00
14232;BME280;7200;52.194;9.900;2023-09-19T05:45:04;99665.38;;;16.72;100.00
14232;BME280;7200;52.194;9.900;2023-09-19T05:47:31;99660.41;;;16.44;100.00
14232;BME280;7200;52.194;9.900;2023-09-19T05:49:56;99674.88;;;16.77;100.00
14232;BME280;7200;52.194;9.900;2023-09-19T05:52:22;99673.38;;;16.97;100.00
14232;BME280;7200;52.194;9.900;2023-09-19T05:54:47;99683.16;;;16.85;100.00
14232;BME280;7200;52.194;9.900;2023-09-19T05:57:12;99684.19;;;17.06;100.00
14232;BME280;7200;52.194;9.900;2023-09-19T05:59:38;99689.16;;;16.39;100.00
14232;BME280;7200;52.194;9.900;2023-09-19T06:02:05;99693.81;;;16.48;100.00
14232;BME280;7200;52.194;9.900;2023-09-19T06:04:31;99699.03;;;16.49;100.00
14232;BME280;7200;52.194;9.900;2023-09-19T06:06:56;99706.41;;;16.46;100.00
14232;BME280;7200;52.194;9.900;2023-09-19T06:09:22;99707.88;;;16.50;100.00
14232;BME280;7200;52.194;9.900;2023-09-19T06:11:48;99724.25;;;16.57;100.00
14232;BME280;7200;52.194;9.900;2023-09-19T06:14:13;99712.75;;;16.56;100.00
14232;BME280;7200;52.194;9.900;2023-09-19T06:16:39;99723.63;;;16.53;100.00
14232;BME280;7200;52.194;9.900;2023-09-19T06:19:06;99719.22;;;16.41;100.00
14232;BME280;7200;52.194;9.900;2023-09-19T06:21:35;99724.41;;;16.42;100.00
14232;BME280;7200;52.194;9.900;2023-09-19T06:24:01;99736.69;;;16.32;100.00
14232;BME280;7200;52.194;9.900;2023-09-19T06:26:26;99735.78;;;16.44;100.00
14232;BME280;7200;52.194;9.900;2023-09-19T06:28:52;99735.19;;;16.41;100.00
14232;BME280;7200;52.194;9.900;2023-09-19T06:31:17;99740.41;;;16.66;100.00
14232;BME280;7200;52.194;9.900;2023-09-19T06:33:43;99741.56;;;16.75;100.00
14232;BME280;7200;52.194;9.900;2023-09-19T06:36:08;99750.28;;;16.77;100.00
14232;BME280;7200;52.194;9.900;2023-09-19T06:38:34;99736.81;;;16.67;100.00
14232;BME280;7200;52.194;9.900;2023-09-19T06:41:01;99745.91;;;16.52;100.00
14232;BME280;7200;52.194;9.900;2023-09-19T06:43:30;99750.59;;;16.48;100.00
14232;BME280;7200;52.194;9.900;2023-09-19T06:45:56;99740.44;;;16.53;100.00
14232;BME280;7200;52.194;9.900;2023-09-19T06:48:22;99738.69;;;16.41;100.00
14232;BME280;7200;52.194;9.900;2023-09-19T06:50:50;99742.06;;;16.56;100.00
14232;BME280;7200;52.194;9.900;2023-09-19T06:53:15;99741.09;;;16.57;100.00
14232;BME280;7200;52.194;9.900;2023-09-19T06:55:41;99741.44;;;16.52;100.00
14232;BME280;7200;52.194;9.900;2023-09-19T06:58:09;99737.56;;;16.57;100.00
14232;BME280;7200;52.194;9.900;2023-09-19T07:00:35;99738.88;;;16.51;100.00
14232;BME280;7200;52.194;9.900;2023-09-19T07:03:03;99738.50;;;16.68;100.00
14232;BME280;7200;52.194;9.900;2023-09-19T07:05:34;99749.06;;;16.57;100.00
14232;BME280;7200;52.194;9.900;2023-09-19T07:08:03;99749.69;;;16.61;100.00
14232;BME280;7200;52.194;9.900;2023-09-19T07:10:28;99755.94;;;16.72;100.00
14232;BME280;7200;52.194;9.900;2023-09-19T07:13:01;99767.75;;;16.81;100.00
14232;BME280;7200;52.194;9.900;2023-09-19T07:15:28;99773.47;;;16.64;100.00
14232;BME280;7200;52.194;9.900;2023-09-19T07:17:54;99772.44;;;16.90;100.00
14232;BME280;7200;52.194;9.900;2023-09-19T07:20:21;99765.47;;;17.01;100.00
14232;BME280;7200;52.194;9.900;2023-09-19T07:22:48;99777.00;;;17.01;100.00
14232;BME280;7200;52.194;9.900;2023-09-19T07:25:15;99764.50;;;17.02;100.00
14232;BME280;7200;52.194;9.900;2023-09-19T07:27:41;99769.88;;;17.13;100.00
14232;BME280;7200;52.194;9.900;2023-09-19T07:30:07;99769.88;;;17.13;100.00
14232;BME280;7200;52.194;9.900;2023-09-19T07:32:33;99770.00;;;17.11;100.00
14232;BME280;7200;52.194;9.900;2023-09-19T07:34:58;99780.75;;;17.10;100.00
14232;BME280;7200;52.194;9.900;2023-09-19T07:37:24;99787.22;;;16.95;100.00
14232;BME280;7200;52.194;9.900;2023-09-19T07:39:50;99796.28;;;17.05;100.00
14232;BME280;7200;52.194;9.900;2023-09-19T07:42:16;99796.22;;;16.93;100.00
14232;BME280;7200;52.194;9.900;2023-09-19T07:44:43;99804.84;;;16.97;100.00
14232;BME280;7200;52.194;9.900;2023-09-19T07:47:11;99804.31;;;17.16;100.00
14232;BME280;7200;52.194;9.900;2023-09-19T07:49:37;99807.09;;;17.15;100.00
14232;BME280;7200;52.194;9.900;2023-09-19T07:52:02;99813.84;;;17.31;100.00
14232;BME280;7200;52.194;9.900;2023-09-19T07:54:27;99810.38;;;17.18;100.00
14232;BME280;7200;52.194;9.900;2023-09-19T07:56:55;99816.84;;;17.27;100.00
14232;BME280;7200;52.194;9.900;2023-09-19T07:59:21;99821.91;;;17.19;100.00
14232;BME280;7200;52.194;9.900;2023-09-19T08:01:46;99818.66;;;17.26;100.00
14232;BME280;7200;52.194;9.900;2023-09-19T08:04:13;99822.00;;;17.17;100.00
14232;BME280;7200;52.194;9.900;2023-09-19T08:06:38;99819.00;;;17.22;100.00
14232;BME280;7200;52.194;9.900;2023-09-19T08:09:04;99827.00;;;17.22;100.00
14232;BME280;7200;52.194;9.900;2023-09-19T08:11:33;99818.59;;;17.15;100.00
14232;BME280;7200;52.194;9.900;2023-09-19T08:13:58;99821.91;;;17.19;100.00
14232;BME280;7200;52.194;9.900;2023-09-19T08:16:24;99824.97;;;17.25;100.00
14232;BME280;7200;52.194;9.900;2023-09-19T08:18:49;99821.16;;;17.17;100.00
14232;BME280;7200;52.194;9.900;2023-09-19T08:21:18;99819.44;;;17.16;100.00
14232;BME280;7200;52.194;9.900;2023-09-19T08:23:44;99816.34;;;17.22;100.00
14232;BME280;7200;52.194;9.900;2023-09-19T08:26:09;99815.19;;;17.37;100.00
14232;BME280;7200;52.194;9.900;2023-09-19T08:28:35;99819.91;;;17.34;100.00
14232;BME280;7200;52.194;9.900;2023-09-19T08:31:02;99812.81;;;17.45;100.00
14232;BME280;7200;52.194;9.900;2023-09-19T08:33:29;99824.03;;;17.62;100.00
14232;BME280;7200;52.194;9.900;2023-09-19T08:35:55;99824.75;;;17.64;100.00
14232;BME280;7200;52.194;9.900;2023-09-19T08:38:21;99836.03;;;17.67;100.00
14232;BME280;7200;52.194;9.900;2023-09-19T08:40:46;99823.34;;;17.71;100.00
14232;BME280;7200;52.194;9.900;2023-09-19T08:43:11;99834.78;;;17.84;100.00
14232;BME280;7200;52.194;9.900;2023-09-19T08:45:38;99824.16;;;17.96;100.00
14232;BME280;7200;52.194;9.900;2023-09-19T08:48:24;99830.69;;;17.92;100.00
14232;BME280;7200;52.194;9.900;2023-09-19T08:51:06;99828.88;;;17.68;100.00
14232;BME280;7200;52.194;9.900;2023-09-19T08:53:50;99827.44;;;17.64;100.00
14232;BME280;7200;52.194;9.900;2023-09-19T08:56:18;99828.50;;;17.97;100.00
14232;BME280;7200;52.194;9.900;2023-09-19T08:58:50;99836.28;;;18.00;100.00
14232;BME280;7200;52.194;9.900;2023-09-19T09:01:18;99837.00;;;18.02;100.00
14232;BME280;7200;52.194;9.900;2023-09-19T09:03:51;99834.75;;;18.20;100.00
14232;BME280;7200;52.194;9.900;2023-09-19T09:06:17;99846.28;;;18.20;100.00
14232;BME280;7200;52.194;9.900;2023-09-19T09:08:44;99849.19;;;18.28;100.00
14232;BME280;7200;52.194;9.900;2023-09-19T09:11:10;99847.00;;;18.22;100.00
14232;BME280;7200;52.194;9.900;2023-09-19T09:13:36;99837.06;;;18.24;100.00
14232;BME280;7200;52.194;9.900;2023-09-19T09:16:02;99849.69;;;18.22;100.00
14232;BME280;7200;52.194;9.900;2023-09-19T09:18:28;99840.44;;;18.26;100.00
14232;BME280;7200;52.194;9.900;2023-09-19T09:20:55;99849.91;;;18.19;100.00
14232;BME280;7200;52.194;9.900;2023-09-19T09:23:21;99850.06;;;18.40;100.00
14232;BME280;7200;52.194;9.900;2023-09-19T09:25:51;99859.75;;;18.19;100.00
14232;BME280;7200;52.194;9.900;2023-09-19T09:28:21;99843.97;;;18.38;100.00
14232;BME280;7200;52.194;9.900;2023-09-19T09:30:47;99843.84;;;18.28;100.00
14232;BME280;7200;52.194;9.900;2023-09-19T09:33:14;99841.56;;;18.35;100.00
14232;BME280;7200;52.194;9.900;2023-09-19T09:35:56;99849.47;;;18.48;100.00
14232;BME280;7200;52.194;9.900;2023-09-19T09:38:24;99835.50;;;18.44;100.00
14232;BME280;7200;52.194;9.900;2023-09-19T09:40:54;99835.97;;;18.38;100.00
14232;BME280;7200;52.194;9.900;2023-09-19T09:48:44;99846.78;;;18.59;100.00
14232;BME280;7200;52.194;9.900;2023-09-19T09:51:29;99846.41;;;18.41;100.00
14232;BME280;7200;52.194;9.900;2023-09-19T09:54:09;99842.91;;;18.52;100.00
14232;BME280;7200;52.194;9.900;2023-09-19T09:56:52;99866.94;;;18.52;100.00
14232;BME280;7200;52.194;9.900;2023-09-19T09:59:18;99867.06;;;18.51;100.00
14232;BME280;7200;52.194;9.900;2023-09-19T10:01:47;99872.19;;;18.65;100.00
14232;BME280;7200;52.194;9.900;2023-09-19T10:04:28;99876.31;;;18.69;100.00
14232;BME280;7200;52.194;9.900;2023-09-19T10:07:01;99869.00;;;18.60;100.00
14232;BME280;7200;52.194;9.900;2023-09-19T10:09:30;99869.97;;;18.59;100.00
14232;BME280;7200;52.194;9.900;2023-09-19T10:12:10;99859.78;;;18.53;100.00
14232;BME280;7200;52.194;9.900;2023-09-19T10:14:38;99854.53;;;18.40;100.00
14232;BME280;7200;52.194;9.900;2023-09-19T10:17:09;99874.44;;;18.36;100.00
14232;BME280;7200;52.194;9.900;2023-09-19T10:20:08;99872.19;;;18.54;100.00
14232;BME280;7200;52.194;9.900;2023-09-19T10:22:46;99866.09;;;18.74;100.00
14232;BME280;7200;52.194;9.900;2023-09-19T10:25:24;99868.19;;;18.93;100.00
14232;BME280;7200;52.194;9.900;2023-09-19T10:27:51;99861.03;;;18.82;100.00
14232;BME280;7200;52.194;9.900;2023-09-19T10:30:19;99861.63;;;18.86;100.00
14232;BME280;7200;52.194;9.900;2023-09-19T10:32:47;99863.19;;;19.00;100.00
14232;BME280;7200;52.194;9.900;2023-09-19T10:35:21;99868.66;;;19.42;100.00
14232;BME280;7200;52.194;9.900;2023-09-19T10:37:47;99856.31;;;19.30;100.00
14232;BME280;7200;52.194;9.900;2023-09-19T10:40:15;99846.25;;;19.22;100.00
14232;BME280;7200;52.194;9.900;2023-09-19T10:42:42;99835.25;;;18.93;100.00
14232;BME280;7200;52.194;9.900;2023-09-19T10:45:09;99842.53;;;18.91;100.00
14232;BME280;7200;52.194;9.900;2023-09-19T10:47:38;99829.63;;;19.07;100.00
14232;BME280;7200;52.194;9.900;2023-09-19T10:50:06;99842.66;;;19.44;100.00
14232;BME280;7200;52.194;9.900;2023-09-19T10:52:33;99832.47;;;19.26;100.00
14232;BME280;7200;52.194;9.900;2023-09-19T10:55:00;99834.75;;;19.10;100.00
14232;BME280;7200;52.194;9.900;2023-09-19T10:57:26;99842.50;;;19.13;100.00
14232;BME280;7200;52.194;9.900;2023-09-19T11:00:06;99838.22;;;19.22;100.00
14232;BME280;7200;52.194;9.900;2023-09-19T11:03:19;99841.22;;;19.29;100.00
14232;BME280;7200;52.194;9.900;2023-09-19T11:06:04;99834.75;;;19.10;100.00
14232;BME280;7200;52.194;9.900;2023-09-19T11:08:50;99850.41;;;19.47;100.00
14232;BME280;7200;52.194;9.900;2023-09-19T11:14:29;99854.69;;;19.82;100.00
14232;BME280;7200;52.194;9.900;2023-09-19T11:33:21;99815.75;;;19.45;100.00
14232;BME280;7200;52.194;9.900;2023-09-19T11:36:05;99835.63;;;19.64;100.00
14232;BME280;7200;52.194;9.900;2023-09-19T11:46:26;99825.09;;;19.51;100.00
14232;BME280;7200;52.194;9.900;2023-09-19T11:48:53;99830.84;;;19.47;100.00
14232;BME280;7200;52.194;9.900;2023-09-19T11:51:27;99825.34;;;19.27;100.00
14232;BME280;7200;52.194;9.900;2023-09-19T11:53:54;99831.25;;;19.31;100.00
14232;BME280;7200;52.194;9.900;2023-09-19T11:56:21;99819.81;;;19.29;100.00
14232;BME280;7200;52.194;9.900;2023-09-19T11:58:52;99840.78;;;19.56;100.00
14232;BME280;7200;52.194;9.900;2023-09-19T12:01:23;99833.31;;;19.38;100.00
14232;BME280;7200;52.194;9.900;2023-09-19T12:03:53;99821.97;;;19.46;100.00
14232;BME280;7200;52.194;9.900;2023-09-19T12:06:19;99828.84;;;19.60;100.00
14232;BME280;7200;52.194;9.900;2023-09-19T12:08:47;99828.19;;;19.68;100.00
14232;BME280;7200;52.194;9.900;2023-09-19T12:11:14;99827.19;;;20.01;100.00
14232;BME280;7200;52.194;9.900;2023-09-19T12:13:44;99815.72;;;19.89;100.00
14232;BME280;7200;52.194;9.900;2023-09-19T12:18:40;99817.25;;;19.92;100.00
14232;BME280;7200;52.194;9.900;2023-09-19T12:21:08;99810.53;;;19.76;100.00
14232;BME280;7200;52.194;9.900;2023-09-19T12:23:37;99825.56;;;19.89;100.00
14232;BME280;7200;52.194;9.900;2023-09-19T12:26:06;99816.34;;;19.49;100.00
14232;BME280;7200;52.194;9.900;2023-09-19T12:28:41;99823.47;;;19.92;100.00
14232;BME280;7200;52.194;9.900;2023-09-19T12:31:07;99821.72;;;19.70;100.00
14232;BME280;7200;52.194;9.900;2023-09-19T12:33:34;99817.09;;;19.83;100.00
14232;BME280;7200;52.194;9.900;2023-09-19T12:36:19;99825.94;;;19.84;100.00
14232;BME280;7200;52.194;9.900;2023-09-19T12:38:56;99835.22;;;19.80;100.00
14232;BME280;7200;52.194;9.900;2023-09-19T12:41:24;99810.28;;;19.68;100.00
14232;BME280;7200;52.194;9.900;2023-09-19T12:43:51;99819.09;;;19.59;100.00
14232;BME280;7200;52.194;9.900;2023-09-19T12:46:22;99816.88;;;19.75;100.00
14232;BME280;7200;52.194;9.900;2023-09-19T12:49:19;99818.56;;;19.97;100.00
14232;BME280;7200;52.194;9.900;2023-09-19T12:51:48;99822.28;;;19.85;100.00
14232;BME280;7200;52.194;9.900;2023-09-19T12:54:14;99812.25;;;19.66;100.00
14232;BME280;7200;52.194;9.900;2023-09-19T12:56:43;99814.56;;;19.71;100.00
14232;BME280;7200;52.194;9.900;2023-09-19T12:59:11;99810.88;;;19.72;100.00
14232;BME280;7200;52.194;9.900;2023-09-19T13:01:39;99817.41;;;20.21;100.00
14232;BME280;7200;52.194;9.900;2023-09-19T13:04:20;99805.09;;;20.39;100.00
14232;BME280;7200;52.194;9.900;2023-09-19T13:06:53;99803.63;;;20.56;100.00
14232;BME280;7200;52.194;9.900;2023-09-19T13:09:21;99789.38;;;19.94;100.00
14232;BME280;7200;52.194;9.900;2023-09-19T13:11:48;99801.56;;;19.87;100.00
14232;BME280;7200;52.194;9.900;2023-09-19T13:14:25;99792.53;;;19.78;100.00
14232;BME280;7200;52.194;9.900;2023-09-19T13:16:58;99800.16;;;19.83;100.00
14232;BME280;7200;52.194;9.900;2023-09-19T13:19:41;99778.69;;;19.73;100.00
14232;BME280;7200;52.194;9.900;2023-09-19T13:22:40;99792.91;;;19.95;100.00
14232;BME280;7200;52.194;9.900;2023-09-19T13:25:12;99789.13;;;19.76;100.00
14232;BME280;7200;52.194;9.900;2023-09-19T13:27:57;99801.44;;;19.89;100.00
14232;BME280;7200;52.194;9.900;2023-09-19T13:30:24;99787.41;;;19.96;100.00
14232;BME280;7200;52.194;9.900;2023-09-19T13:33:08;99801.19;;;20.13;100.00
14232;BME280;7200;52.194;9.900;2023-09-19T13:35:34;99786.38;;;20.09;100.00
14232;BME280;7200;52.194;9.900;2023-09-19T13:38:00;99782.25;;;20.05;100.00
14232;BME280;7200;52.194;9.900;2023-09-19T13:40:26;99783.09;;;20.05;100.00
14232;BME280;7200;52.194;9.900;2023-09-19T13:42:55;99795.28;;;20.50;100.00
14232;BME280;7200;52.194;9.900;2023-09-19T13:45:21;99781.81;;;20.61;100.00
14232;BME280;7200;52.194;9.900;2023-09-19T13:47:49;99780.34;;;20.16;100.00
14232;BME280;7200;52.194;9.900;2023-09-19T13:50:15;99771.75;;;19.92;100.00
14232;BME280;7200;52.194;9.900;2023-09-19T13:52:40;99784.94;;;20.05;100.00
14232;BME280;7200;52.194;9.900;2023-09-19T13:55:06;99794.53;;;20.07;100.00
14232;BME280;7200;52.194;9.900;2023-09-19T13:57:32;99786.22;;;20.10;100.00